sensor_id;sensor_type;location;lat;lon;timestamp;P1;durP1;ratioP1;P2;durP2;ratioP2
71176;SDS011;58877;51.992;4.504;2023-03-05T00:01:09;3.66;;;2.46;;
71176;SDS011;58877;51.992;4.504;2023-03-05T00:03:37;3.33;;;2.27;;
71176;SDS011;58877;51.992;4.504;2023-03-05T00:06:03;2.73;;;1.91;;
71176;SDS011;58877;51.992;4.504;2023-03-05T00:08:29;3.28;;;2.34;;
71176;SDS011;58877;51.992;4.504;2023-03-05T00:11:02;3.23;;;2.22;;
71176;SDS011;58877;51.992;4.504;2023-03-05T00:13:30;3.40;;;2.32;;
71176;SDS011;58877;51.992;4.504;2023-03-05T00:15:57;3.67;;;2.50;;
71176;SDS011;58877;51.992;4.504;2023-03-05T00:18:22;3.52;;;2.42;;
71176;SDS011;58877;51.992;4.504;2023-03-05T00:20:48;4.10;;;2.85;;
71176;SDS011;58877;51.992;4.504;2023-03-05T00:23:14;3.76;;;2.62;;
71176;SDS011;58877;51.992;4.504;2023-03-05T00:25:40;3.89;;;2.75;;
71176;SDS011;58877;51.992;4.504;2023-03-05T00:28:06;3.64;;;2.60;;
71176;SDS011;58877;51.992;4.504;2023-03-05T00:30:33;4.34;;;3.06;;
71176;SDS011;58877;51.992;4.504;2023-03-05T00:32:59;4.15;;;2.92;;
71176;SDS011;58877;51.992;4.504;2023-03-05T00:35:26;3.58;;;2.59;;
71176;SDS011;58877;51.992;4.504;2023-03-05T00:37:52;4.00;;;2.85;;
71176;SDS011;58877;51.992;4.504;2023-03-05T00:40:18;4.38;;;3.12;;
71176;SDS011;58877;51.992;4.504;2023-03-05T00:42:44;3.89;;;2.74;;
71176;SDS011;58877;51.992;4.504;2023-03-05T00:45:10;4.24;;;2.95;;
71176;SDS011;58877;51.992;4.504;2023-03-05T00:47:36;3.86;;;2.70;;
71176;SDS011;58877;51.992;4.504;2023-03-05T00:50:02;3.66;;;2.62;;
71176;SDS011;58877;51.992;4.504;2023-03-05T00:52:29;3.50;;;2.58;;
71176;SDS011;58877;51.992;4.504;2023-03-05T00:54:55;3.45;;;2.65;;
71176;SDS011;58877;51.992;4.504;2023-03-05T00:57:21;3.17;;;2.45;;
71176;SDS011;58877;51.992;4.504;2023-03-05T00:59:47;2.77;;;2.11;;
71176;SDS011;58877;51.992;4.504;2023-03-05T01:02:12;2.78;;;2.11;;
71176;SDS011;58877;51.992;4.504;2023-03-05T01:04:38;2.85;;;2.10;;
71176;SDS011;58877;51.992;4.504;2023-03-05T01:07:04;3.64;;;2.62;;
71176;SDS011;58877;51.992;4.504;2023-03-05T01:09:29;3.01;;;2.12;;
71176;SDS011;58877;51.992;4.504;2023-03-05T01:11:55;3.78;;;2.62;;
71176;SDS011;58877;51.992;4.504;2023-03-05T01:14:21;3.60;;;2.43;;
71176;SDS011;58877;51.992;4.504;2023-03-05T01:16:47;4.20;;;2.82;;
71176;SDS011;58877;51.992;4.504;2023-03-05T01:19:14;4.00;;;2.67;;
71176;SDS011;58877;51.992;4.504;2023-03-05T01:21:40;3.94;;;2.61;;
71176;SDS011;58877;51.992;4.504;2023-03-05T01:24:07;3.29;;;2.19;;
71176;SDS011;58877;51.992;4.504;2023-03-05T01:26:33;3.34;;;2.25;;
71176;SDS011;58877;51.992;4.504;2023-03-05T01:29:00;3.48;;;2.35;;
71176;SDS011;58877;51.992;4.504;2023-03-05T01:31:26;3.78;;;2.54;;
71176;SDS011;58877;51.992;4.504;2023-03-05T01:33:52;3.59;;;2.43;;
71176;SDS011;58877;51.992;4.504;2023-03-05T01:36:19;3.82;;;2.60;;
71176;SDS011;58877;51.992;4.504;2023-03-05T01:38:49;3.70;;;2.56;;
71176;SDS011;58877;51.992;4.504;2023-03-05T01:41:16;3.61;;;2.52;;
71176;SDS011;58877;51.992;4.504;2023-03-05T01:43:43;3.91;;;2.71;;
71176;SDS011;58877;51.992;4.504;2023-03-05T01:46:25;4.13;;;2.85;;
71176;SDS011;58877;51.992;4.504;2023-03-05T01:49:05;3.68;;;2.55;;
71176;SDS011;58877;51.992;4.504;2023-03-05T01:54:52;3.35;;;2.43;;
71176;SDS011;58877;51.992;4.504;2023-03-05T01:57:42;3.17;;;2.32;;
71176;SDS011;58877;51.992;4.504;2023-03-05T02:00:29;2.83;;;2.09;;
71176;SDS011;58877;51.992;4.504;2023-03-05T02:02:56;2.69;;;2.02;;
71176;SDS011;58877;51.992;4.504;2023-03-05T02:05:29;2.31;;;1.73;;
71176;SDS011;58877;51.992;4.504;2023-03-05T02:07:58;2.60;;;1.95;;
71176;SDS011;58877;51.992;4.504;2023-03-05T02:10:26;2.66;;;1.95;;
71176;SDS011;58877;51.992;4.504;2023-03-05T02:13:17;2.65;;;1.93;;
71176;SDS011;58877;51.992;4.504;2023-03-05T02:15:47;3.07;;;2.23;;
71176;SDS011;58877;51.992;4.504;2023-03-05T02:18:14;2.86;;;2.10;;
71176;SDS011;58877;51.992;4.504;2023-03-05T02:20:50;2.88;;;2.15;;
71176;SDS011;58877;51.992;4.504;2023-03-05T02:23:16;3.14;;;2.40;;
71176;SDS011;58877;51.992;4.504;2023-03-05T02:25:43;2.32;;;1.78;;
71176;SDS011;58877;51.992;4.504;2023-03-05T02:30:40;2.93;;;2.22;;
71176;SDS011;58877;51.992;4.504;2023-03-05T02:33:06;2.84;;;2.10;;
71176;SDS011;58877;51.992;4.504;2023-03-05T02:35:32;2.79;;;2.08;;
71176;SDS011;58877;51.992;4.504;2023-03-05T02:37:57;3.21;;;2.37;;
71176;SDS011;58877;51.992;4.504;2023-03-05T02:40:23;3.12;;;2.28;;
71176;SDS011;58877;51.992;4.504;2023-03-05T02:42:49;3.41;;;2.47;;
71176;SDS011;58877;51.992;4.504;2023-03-05T02:45:15;3.11;;;2.27;;
71176;SDS011;58877;51.992;4.504;2023-03-05T02:47:41;3.39;;;2.44;;
71176;SDS011;58877;51.992;4.504;2023-03-05T02:50:07;2.94;;;2.13;;
71176;SDS011;58877;51.992;4.504;2023-03-05T02:52:35;3.51;;;2.60;;
71176;SDS011;58877;51.992;4.504;2023-03-05T02:55:04;3.07;;;2.31;;
71176;SDS011;58877;51.992;4.504;2023-03-05T02:57:30;2.98;;;2.24;;
71176;SDS011;58877;51.992;4.504;2023-03-05T02:59:56;2.75;;;2.01;;
71176;SDS011;58877;51.992;4.504;2023-03-05T03:02:21;3.04;;;2.13;;
71176;SDS011;58877;51.992;4.504;2023-03-05T03:04:47;2.77;;;1.93;;
71176;SDS011;58877;51.992;4.504;2023-03-05T03:07:13;3.55;;;2.48;;
71176;SDS011;58877;51.992;4.504;2023-03-05T03:09:39;2.54;;;1.81;;
71176;SDS011;58877;51.992;4.504;2023-03-05T03:12:07;2.15;;;1.55;;
71176;SDS011;58877;51.992;4.504;2023-03-05T03:14:34;2.74;;;1.95;;
71176;SDS011;58877;51.992;4.504;2023-03-05T03:17:04;2.72;;;1.95;;
71176;SDS011;58877;51.992;4.504;2023-03-05T03:19:31;2.55;;;1.80;;
71176;SDS011;58877;51.992;4.504;2023-03-05T03:21:57;2.49;;;1.78;;
71176;SDS011;58877;51.992;4.504;2023-03-05T03:24:23;2.52;;;1.87;;
71176;SDS011;58877;51.992;4.504;2023-03-05T03:26:49;2.50;;;1.85;;
71176;SDS011;58877;51.992;4.504;2023-03-05T03:29:15;2.59;;;1.91;;
71176;SDS011;58877;51.992;4.504;2023-03-05T03:31:42;3.05;;;2.23;;
71176;SDS011;58877;51.992;4.504;2023-03-05T03:34:10;2.24;;;1.66;;
71176;SDS011;58877;51.992;4.504;2023-03-05T03:36:37;2.55;;;1.92;;
71176;SDS011;58877;51.992;4.504;2023-03-05T03:39:03;2.21;;;1.69;;
71176;SDS011;58877;51.992;4.504;2023-03-05T03:41:30;2.19;;;1.71;;
71176;SDS011;58877;51.992;4.504;2023-03-05T03:43:56;2.54;;;2.00;;
71176;SDS011;58877;51.992;4.504;2023-03-05T03:46:22;2.25;;;1.79;;
71176;SDS011;58877;51.992;4.504;2023-03-05T03:48:50;2.30;;;1.84;;
71176;SDS011;58877;51.992;4.504;2023-03-05T03:51:16;2.15;;;1.69;;
71176;SDS011;58877;51.992;4.504;2023-03-05T03:53:42;2.67;;;2.10;;
71176;SDS011;58877;51.992;4.504;2023-03-05T03:56:07;2.47;;;1.91;;
71176;SDS011;58877;51.992;4.504;2023-03-05T03:58:33;2.04;;;1.55;;
71176;SDS011;58877;51.992;4.504;2023-03-05T04:01:02;2.00;;;1.51;;
71176;SDS011;58877;51.992;4.504;2023-03-05T04:03:31;1.75;;;1.31;;
71176;SDS011;58877;51.992;4.504;2023-03-05T04:05:57;1.40;;;1.06;;
71176;SDS011;58877;51.992;4.504;2023-03-05T04:08:22;1.60;;;1.18;;
71176;SDS011;58877;51.992;4.504;2023-03-05T04:10:48;1.56;;;1.12;;
71176;SDS011;58877;51.992;4.504;2023-03-05T04:13:14;1.48;;;1.05;;
71176;SDS011;58877;51.992;4.504;2023-03-05T04:15:39;1.54;;;1.07;;
71176;SDS011;58877;51.992;4.504;2023-03-05T04:18:05;1.50;;;1.04;;
71176;SDS011;58877;51.992;4.504;2023-03-05T04:20:31;1.34;;;0.91;;
71176;SDS011;58877;51.992;4.504;2023-03-05T04:22:56;1.58;;;1.08;;
71176;SDS011;58877;51.992;4.504;2023-03-05T04:25:22;1.48;;;1.01;;
71176;SDS011;58877;51.992;4.504;2023-03-05T04:27:47;1.17;;;0.80;;
71176;SDS011;58877;51.992;4.504;2023-03-05T04:30:13;1.88;;;1.28;;
71176;SDS011;58877;51.992;4.504;2023-03-05T04:32:40;1.06;;;0.71;;
71176;SDS011;58877;51.992;4.504;2023-03-05T04:35:06;1.54;;;1.03;;
71176;SDS011;58877;51.992;4.504;2023-03-05T04:37:31;0.99;;;0.66;;
71176;SDS011;58877;51.992;4.504;2023-03-05T04:39:57;1.30;;;0.88;;
71176;SDS011;58877;51.992;4.504;2023-03-05T04:42:23;1.29;;;0.88;;
71176;SDS011;58877;51.992;4.504;2023-03-05T04:44:49;1.33;;;0.90;;
71176;SDS011;58877;51.992;4.504;2023-03-05T04:47:15;1.51;;;1.02;;
71176;SDS011;58877;51.992;4.504;2023-03-05T04:49:45;1.15;;;0.77;;
71176;SDS011;58877;51.992;4.504;2023-03-05T04:52:10;1.16;;;0.78;;
71176;SDS011;58877;51.992;4.504;2023-03-05T04:54:37;1.97;;;1.31;;
71176;SDS011;58877;51.992;4.504;2023-03-05T04:57:03;1.43;;;0.95;;
71176;SDS011;58877;51.992;4.504;2023-03-05T04:59:29;1.13;;;0.76;;
71176;SDS011;58877;51.992;4.504;2023-03-05T05:01:54;1.70;;;1.13;;
71176;SDS011;58877;51.992;4.504;2023-03-05T05:04:20;1.45;;;0.98;;
71176;SDS011;58877;51.992;4.504;2023-03-05T05:06:45;1.74;;;1.16;;
71176;SDS011;58877;51.992;4.504;2023-03-05T05:09:11;1.45;;;0.95;;
71176;SDS011;58877;51.992;4.504;2023-03-05T05:11:38;1.92;;;1.26;;
71176;SDS011;58877;51.992;4.504;2023-03-05T05:14:04;1.59;;;1.04;;
71176;SDS011;58877;51.992;4.504;2023-03-05T05:16:29;1.59;;;1.06;;
71176;SDS011;58877;51.992;4.504;2023-03-05T05:18:55;1.53;;;1.03;;
71176;SDS011;58877;51.992;4.504;2023-03-05T05:21:20;1.87;;;1.24;;
71176;SDS011;58877;51.992;4.504;2023-03-05T05:23:46;1.34;;;0.88;;
71176;SDS011;58877;51.992;4.504;2023-03-05T05:26:12;1.37;;;0.91;;
71176;SDS011;58877;51.992;4.504;2023-03-05T05:28:41;1.21;;;0.82;;
71176;SDS011;58877;51.992;4.504;2023-03-05T05:31:08;1.59;;;1.09;;
71176;SDS011;58877;51.992;4.504;2023-03-05T05:33:36;1.50;;;1.02;;
71176;SDS011;58877;51.992;4.504;2023-03-05T05:36:06;1.36;;;0.92;;
71176;SDS011;58877;51.992;4.504;2023-03-05T05:38:33;1.25;;;0.86;;
71176;SDS011;58877;51.992;4.504;2023-03-05T05:41:06;1.21;;;0.84;;
71176;SDS011;58877;51.992;4.504;2023-03-05T05:43:35;1.44;;;1.02;;
71176;SDS011;58877;51.992;4.504;2023-03-05T05:46:01;1.93;;;1.36;;
71176;SDS011;58877;51.992;4.504;2023-03-05T05:48:31;1.56;;;1.10;;
71176;SDS011;58877;51.992;4.504;2023-03-05T05:50:58;1.26;;;0.88;;
71176;SDS011;58877;51.992;4.504;2023-03-05T05:53:24;1.38;;;0.96;;
71176;SDS011;58877;51.992;4.504;2023-03-05T05:55:50;1.45;;;1.00;;
71176;SDS011;58877;51.992;4.504;2023-03-05T05:58:16;2.03;;;1.41;;
71176;SDS011;58877;51.992;4.504;2023-03-05T06:00:42;1.72;;;1.21;;
71176;SDS011;58877;51.992;4.504;2023-03-05T06:03:08;1.65;;;1.19;;
71176;SDS011;58877;51.992;4.504;2023-03-05T06:05:34;1.53;;;1.11;;
71176;SDS011;58877;51.992;4.504;2023-03-05T06:07:59;1.22;;;0.90;;
71176;SDS011;58877;51.992;4.504;2023-03-05T06:10:25;1.42;;;1.06;;
71176;SDS011;58877;51.992;4.504;2023-03-05T06:12:51;1.34;;;1.01;;
71176;SDS011;58877;51.992;4.504;2023-03-05T06:15:16;1.38;;;1.05;;
71176;SDS011;58877;51.992;4.504;2023-03-05T06:17:44;1.24;;;0.94;;
71176;SDS011;58877;51.992;4.504;2023-03-05T06:20:10;1.24;;;0.96;;
71176;SDS011;58877;51.992;4.504;2023-03-05T06:22:37;1.22;;;0.96;;
71176;SDS011;58877;51.992;4.504;2023-03-05T06:25:03;1.31;;;1.05;;
71176;SDS011;58877;51.992;4.504;2023-03-05T06:27:30;1.48;;;1.18;;
71176;SDS011;58877;51.992;4.504;2023-03-05T06:29:55;1.63;;;1.26;;
71176;SDS011;58877;51.992;4.504;2023-03-05T06:32:21;1.59;;;1.25;;
71176;SDS011;58877;51.992;4.504;2023-03-05T06:34:47;1.27;;;1.00;;
71176;SDS011;58877;51.992;4.504;2023-03-05T06:37:14;1.33;;;1.04;;
71176;SDS011;58877;51.992;4.504;2023-03-05T06:39:40;1.42;;;1.09;;
71176;SDS011;58877;51.992;4.504;2023-03-05T06:42:06;1.34;;;1.02;;
71176;SDS011;58877;51.992;4.504;2023-03-05T06:44:45;1.13;;;0.86;;
71176;SDS011;58877;51.992;4.504;2023-03-05T06:47:37;1.76;;;1.32;;
71176;SDS011;58877;51.992;4.504;2023-03-05T06:50:10;1.42;;;1.07;;
71176;SDS011;58877;51.992;4.504;2023-03-05T06:52:36;1.64;;;1.23;;
71176;SDS011;58877;51.992;4.504;2023-03-05T06:55:05;1.81;;;1.35;;
71176;SDS011;58877;51.992;4.504;2023-03-05T06:57:32;1.68;;;1.28;;
71176;SDS011;58877;51.992;4.504;2023-03-05T06:59:58;1.69;;;1.30;;
71176;SDS011;58877;51.992;4.504;2023-03-05T07:02:23;1.51;;;1.16;;
71176;SDS011;58877;51.992;4.504;2023-03-05T07:04:49;1.83;;;1.40;;
71176;SDS011;58877;51.992;4.504;2023-03-05T07:07:14;1.31;;;1.01;;
71176;SDS011;58877;51.992;4.504;2023-03-05T07:09:41;1.51;;;1.18;;
71176;SDS011;58877;51.992;4.504;2023-03-05T07:12:09;1.39;;;1.07;;
71176;SDS011;58877;51.992;4.504;2023-03-05T07:14:38;1.25;;;0.96;;
71176;SDS011;58877;51.992;4.504;2023-03-05T07:17:05;1.37;;;1.05;;
71176;SDS011;58877;51.992;4.504;2023-03-05T07:19:31;1.01;;;0.80;;
71176;SDS011;58877;51.992;4.504;2023-03-05T07:21:57;1.24;;;0.99;;
71176;SDS011;58877;51.992;4.504;2023-03-05T07:24:22;1.52;;;1.20;;
71176;SDS011;58877;51.992;4.504;2023-03-05T07:26:57;1.38;;;1.09;;
71176;SDS011;58877;51.992;4.504;2023-03-05T07:29:23;1.26;;;1.01;;
71176;SDS011;58877;51.992;4.504;2023-03-05T07:31:50;1.63;;;1.32;;
71176;SDS011;58877;51.992;4.504;2023-03-05T07:34:15;1.72;;;1.39;;
71176;SDS011;58877;51.992;4.504;2023-03-05T07:36:41;1.39;;;1.10;;
71176;SDS011;58877;51.992;4.504;2023-03-05T07:39:09;1.09;;;0.86;;
71176;SDS011;58877;51.992;4.504;2023-03-05T07:41:36;1.18;;;0.95;;
71176;SDS011;58877;51.992;4.504;2023-03-05T07:44:03;0.69;;;0.56;;
71176;SDS011;58877;51.992;4.504;2023-03-05T07:46:30;0.76;;;0.62;;
71176;SDS011;58877;51.992;4.504;2023-03-05T07:48:58;1.10;;;0.89;;
71176;SDS011;58877;51.992;4.504;2023-03-05T07:51:25;0.80;;;0.64;;
71176;SDS011;58877;51.992;4.504;2023-03-05T07:53:52;0.83;;;0.66;;
71176;SDS011;58877;51.992;4.504;2023-03-05T07:56:21;1.13;;;0.89;;
71176;SDS011;58877;51.992;4.504;2023-03-05T07:58:55;0.96;;;0.74;;
71176;SDS011;58877;51.992;4.504;2023-03-05T08:01:25;1.08;;;0.81;;
71176;SDS011;58877;51.992;4.504;2023-03-05T08:03:51;1.05;;;0.79;;
71176;SDS011;58877;51.992;4.504;2023-03-05T08:06:17;1.40;;;1.06;;
71176;SDS011;58877;51.992;4.504;2023-03-05T08:08:43;1.23;;;0.95;;
71176;SDS011;58877;51.992;4.504;2023-03-05T08:11:10;1.19;;;0.93;;
71176;SDS011;58877;51.992;4.504;2023-03-05T08:13:38;1.63;;;1.26;;
71176;SDS011;58877;51.992;4.504;2023-03-05T08:16:05;1.53;;;1.15;;
71176;SDS011;58877;51.992;4.504;2023-03-05T08:18:32;1.21;;;0.91;;
71176;SDS011;58877;51.992;4.504;2023-03-05T08:20:58;1.41;;;1.08;;
71176;SDS011;58877;51.992;4.504;2023-03-05T08:23:28;1.66;;;1.26;;
71176;SDS011;58877;51.992;4.504;2023-03-05T08:25:54;1.17;;;0.90;;
71176;SDS011;58877;51.992;4.504;2023-03-05T08:28:20;1.30;;;1.00;;
71176;SDS011;58877;51.992;4.504;2023-03-05T08:30:46;1.32;;;1.03;;
71176;SDS011;58877;51.992;4.504;2023-03-05T08:33:13;1.36;;;1.06;;
71176;SDS011;58877;51.992;4.504;2023-03-05T08:35:41;1.09;;;0.85;;
71176;SDS011;58877;51.992;4.504;2023-03-05T08:38:08;1.18;;;0.92;;
71176;SDS011;58877;51.992;4.504;2023-03-05T08:40:33;1.17;;;0.94;;
71176;SDS011;58877;51.992;4.504;2023-03-05T08:42:59;1.13;;;0.92;;
71176;SDS011;58877;51.992;4.504;2023-03-05T08:45:25;1.21;;;0.97;;
71176;SDS011;58877;51.992;4.504;2023-03-05T08:47:54;1.52;;;1.20;;
71176;SDS011;58877;51.992;4.504;2023-03-05T08:50:21;1.41;;;1.08;;
71176;SDS011;58877;51.992;4.504;2023-03-05T08:52:48;1.32;;;0.98;;
71176;SDS011;58877;51.992;4.504;2023-03-05T08:55:14;1.57;;;1.15;;
71176;SDS011;58877;51.992;4.504;2023-03-05T08:57:39;1.49;;;1.08;;
71176;SDS011;58877;51.992;4.504;2023-03-05T09:00:05;1.17;;;0.85;;
71176;SDS011;58877;51.992;4.504;2023-03-05T09:02:32;1.25;;;0.90;;
71176;SDS011;58877;51.992;4.504;2023-03-05T09:04:57;1.61;;;1.13;;
71176;SDS011;58877;51.992;4.504;2023-03-05T09:07:23;1.92;;;1.34;;
71176;SDS011;58877;51.992;4.504;2023-03-05T09:09:49;1.74;;;1.25;;
71176;SDS011;58877;51.992;4.504;2023-03-05T09:12:14;1.78;;;1.26;;
71176;SDS011;58877;51.992;4.504;2023-03-05T09:14:40;1.21;;;0.84;;
71176;SDS011;58877;51.992;4.504;2023-03-05T09:17:06;0.95;;;0.66;;
71176;SDS011;58877;51.992;4.504;2023-03-05T09:19:32;1.37;;;0.94;;
71176;SDS011;58877;51.992;4.504;2023-03-05T09:21:58;1.60;;;1.08;;
71176;SDS011;58877;51.992;4.504;2023-03-05T09:24:23;1.34;;;0.90;;
71176;SDS011;58877;51.992;4.504;2023-03-05T09:26:49;1.16;;;0.78;;
71176;SDS011;58877;51.992;4.504;2023-03-05T09:29:15;1.46;;;0.98;;
71176;SDS011;58877;51.992;4.504;2023-03-05T09:31:40;1.66;;;1.11;;
71176;SDS011;58877;51.992;4.504;2023-03-05T09:34:09;1.59;;;1.07;;
71176;SDS011;58877;51.992;4.504;2023-03-05T09:36:35;1.20;;;0.82;;
71176;SDS011;58877;51.992;4.504;2023-03-05T09:39:01;1.39;;;0.95;;
71176;SDS011;58877;51.992;4.504;2023-03-05T09:49:16;1.05;;;0.73;;
71176;SDS011;58877;51.992;4.504;2023-03-05T09:51:44;1.06;;;0.74;;
71176;SDS011;58877;51.992;4.504;2023-03-05T09:57:28;0.97;;;0.67;;
71176;SDS011;58877;51.992;4.504;2023-03-05T10:00:06;1.44;;;1.00;;
71176;SDS011;58877;51.992;4.504;2023-03-05T10:02:50;1.49;;;1.03;;
71176;SDS011;58877;51.992;4.504;2023-03-05T10:07:56;1.47;;;1.00;;
71176;SDS011;58877;51.992;4.504;2023-03-05T10:10:41;1.61;;;1.09;;
71176;SDS011;58877;51.992;4.504;2023-03-05T10:13:15;1.30;;;0.88;;
71176;SDS011;58877;51.992;4.504;2023-03-05T10:15:53;1.76;;;1.22;;
71176;SDS011;58877;51.992;4.504;2023-03-05T10:18:54;1.46;;;1.01;;
71176;SDS011;58877;51.992;4.504;2023-03-05T10:24:17;1.26;;;0.88;;
71176;SDS011;58877;51.992;4.504;2023-03-05T10:29:43;1.49;;;1.05;;
71176;SDS011;58877;51.992;4.504;2023-03-05T10:35:22;1.62;;;1.14;;
71176;SDS011;58877;51.992;4.504;2023-03-05T10:38:07;1.49;;;1.04;;
71176;SDS011;58877;51.992;4.504;2023-03-05T10:41:01;1.26;;;0.88;;
71176;SDS011;58877;51.992;4.504;2023-03-05T10:46:20;1.65;;;1.16;;
71176;SDS011;58877;51.992;4.504;2023-03-05T10:49:01;1.72;;;1.25;;
71176;SDS011;58877;51.992;4.504;2023-03-05T10:54:52;1.10;;;0.78;;
71176;SDS011;58877;51.992;4.504;2023-03-05T10:57:27;1.16;;;0.83;;
71176;SDS011;58877;51.992;4.504;2023-03-05T11:02:57;1.25;;;0.89;;
71176;SDS011;58877;51.992;4.504;2023-03-05T11:05:38;1.29;;;0.91;;
71176;SDS011;58877;51.992;4.504;2023-03-05T11:08:22;1.02;;;0.73;;
71176;SDS011;58877;51.992;4.504;2023-03-05T11:11:05;1.09;;;0.77;;
71176;SDS011;58877;51.992;4.504;2023-03-05T11:13:50;1.21;;;0.85;;
71176;SDS011;58877;51.992;4.504;2023-03-05T11:16:24;1.22;;;0.87;;
71176;SDS011;58877;51.992;4.504;2023-03-05T11:21:42;1.13;;;0.79;;
71176;SDS011;58877;51.992;4.504;2023-03-05T11:24:41;1.33;;;0.94;;
71176;SDS011;58877;51.992;4.504;2023-03-05T11:27:32;1.17;;;0.83;;
71176;SDS011;58877;51.992;4.504;2023-03-05T11:30:12;1.10;;;0.77;;
71176;SDS011;58877;51.992;4.504;2023-03-05T11:32:48;1.17;;;0.82;;
71176;SDS011;58877;51.992;4.504;2023-03-05T11:35:36;0.98;;;0.68;;
71176;SDS011;58877;51.992;4.504;2023-03-05T11:38:14;0.68;;;0.48;;
71176;SDS011;58877;51.992;4.504;2023-03-05T11:40:41;1.48;;;1.05;;
71176;SDS011;58877;51.992;4.504;2023-03-05T11:43:09;1.50;;;1.07;;
71176;SDS011;58877;51.992;4.504;2023-03-05T11:45:41;1.34;;;0.94;;
71176;SDS011;58877;51.992;4.504;2023-03-05T11:48:17;0.97;;;0.67;;
71176;SDS011;58877;51.992;4.504;2023-03-05T11:50:51;0.97;;;0.67;;
71176;SDS011;58877;51.992;4.504;2023-03-05T11:53:28;1.18;;;0.82;;
71176;SDS011;58877;51.992;4.504;2023-03-05T11:56:04;1.07;;;0.76;;
71176;SDS011;58877;51.992;4.504;2023-03-05T11:59:02;0.82;;;0.58;;
71176;SDS011;58877;51.992;4.504;2023-03-05T12:01:39;1.14;;;0.80;;
71176;SDS011;58877;51.992;4.504;2023-03-05T12:04:12;1.37;;;0.94;;
71176;SDS011;58877;51.992;4.504;2023-03-05T12:11:53;0.72;;;0.50;;
71176;SDS011;58877;51.992;4.504;2023-03-05T12:17:46;1.24;;;0.87;;
71176;SDS011;58877;51.992;4.504;2023-03-05T12:20:48;1.09;;;0.76;;
71176;SDS011;58877;51.992;4.504;2023-03-05T12:23:43;0.92;;;0.64;;
71176;SDS011;58877;51.992;4.504;2023-03-05T12:26:11;0.78;;;0.54;;
71176;SDS011;58877;51.992;4.504;2023-03-05T12:38:42;0.88;;;0.60;;
71176;SDS011;58877;51.992;4.504;2023-03-05T12:46:41;0.92;;;0.64;;
71176;SDS011;58877;51.992;4.504;2023-03-05T12:49:38;1.08;;;0.76;;
71176;SDS011;58877;51.992;4.504;2023-03-05T12:52:20;1.38;;;0.97;;
71176;SDS011;58877;51.992;4.504;2023-03-05T12:57:45;1.48;;;1.04;;
71176;SDS011;58877;51.992;4.504;2023-03-05T13:00:24;0.95;;;0.67;;
71176;SDS011;58877;51.992;4.504;2023-03-05T13:02:57;1.31;;;0.91;;
71176;SDS011;58877;51.992;4.504;2023-03-05T13:05:30;1.17;;;0.81;;
71176;SDS011;58877;51.992;4.504;2023-03-05T13:13:26;1.44;;;1.04;;
71176;SDS011;58877;51.992;4.504;2023-03-05T13:15:55;1.04;;;0.75;;
71176;SDS011;58877;51.992;4.504;2023-03-05T13:18:22;1.24;;;0.91;;
71176;SDS011;58877;51.992;4.504;2023-03-05T13:21:10;1.24;;;0.92;;
71176;SDS011;58877;51.992;4.504;2023-03-05T13:23:45;1.34;;;1.00;;
71176;SDS011;58877;51.992;4.504;2023-03-05T13:26:22;1.14;;;0.86;;
71176;SDS011;58877;51.992;4.504;2023-03-05T13:29:08;1.13;;;0.85;;
71176;SDS011;58877;51.992;4.504;2023-03-05T13:31:45;1.24;;;0.95;;
71176;SDS011;58877;51.992;4.504;2023-03-05T13:34:29;1.14;;;0.88;;
71176;SDS011;58877;51.992;4.504;2023-03-05T13:39:32;1.19;;;0.91;;
71176;SDS011;58877;51.992;4.504;2023-03-05T13:42:19;1.41;;;1.07;;
71176;SDS011;58877;51.992;4.504;2023-03-05T13:45:00;1.17;;;0.89;;
71176;SDS011;58877;51.992;4.504;2023-03-05T13:47:30;1.26;;;0.97;;
71176;SDS011;58877;51.992;4.504;2023-03-05T13:50:03;0.87;;;0.68;;
71176;SDS011;58877;51.992;4.504;2023-03-05T13:52:36;1.33;;;1.05;;
71176;SDS011;58877;51.992;4.504;2023-03-05T13:55:13;1.16;;;0.92;;
71176;SDS011;58877;51.992;4.504;2023-03-05T13:57:45;0.97;;;0.76;;
71176;SDS011;58877;51.992;4.504;2023-03-05T14:02:52;1.33;;;1.04;;
71176;SDS011;58877;51.992;4.504;2023-03-05T14:05:21;1.07;;;0.82;;
71176;SDS011;58877;51.992;4.504;2023-03-05T14:07:48;1.16;;;0.88;;
71176;SDS011;58877;51.992;4.504;2023-03-05T14:10:58;1.43;;;1.07;;
71176;SDS011;58877;51.992;4.504;2023-03-05T14:13:13;1.30;;;0.97;;
71176;SDS011;58877;51.992;4.504;2023-03-05T14:18:29;0.97;;;0.72;;
71176;SDS011;58877;51.992;4.504;2023-03-05T14:20:59;1.13;;;0.84;;
71176;SDS011;58877;51.992;4.504;2023-03-05T14:26:27;1.30;;;0.97;;
71176;SDS011;58877;51.992;4.504;2023-03-05T14:29:13;1.09;;;0.81;;
71176;SDS011;58877;51.992;4.504;2023-03-05T14:31:49;0.80;;;0.60;;
71176;SDS011;58877;51.992;4.504;2023-03-05T14:34:19;0.88;;;0.67;;
71176;SDS011;58877;51.992;4.504;2023-03-05T14:36:57;1.17;;;0.87;;
71176;SDS011;58877;51.992;4.504;2023-03-05T14:39:37;0.90;;;0.66;;
71176;SDS011;58877;51.992;4.504;2023-03-05T14:44:49;1.02;;;0.74;;
71176;SDS011;58877;51.992;4.504;2023-03-05T14:47:15;1.11;;;0.81;;
71176;SDS011;58877;51.992;4.504;2023-03-05T14:49:43;0.72;;;0.53;;
71176;SDS011;58877;51.992;4.504;2023-03-05T14:52:13;1.13;;;0.83;;
71176;SDS011;58877;51.992;4.504;2023-03-05T14:54:41;0.85;;;0.62;;
71176;SDS011;58877;51.992;4.504;2023-03-05T14:57:09;1.03;;;0.76;;
71176;SDS011;58877;51.992;4.504;2023-03-05T14:59:41;1.09;;;0.80;;
71176;SDS011;58877;51.992;4.504;2023-03-05T15:02:12;1.12;;;0.83;;
71176;SDS011;58877;51.992;4.504;2023-03-05T15:04:43;1.00;;;0.74;;
71176;SDS011;58877;51.992;4.504;2023-03-05T15:07:14;1.03;;;0.76;;
71176;SDS011;58877;51.992;4.504;2023-03-05T15:09:43;1.13;;;0.83;;
71176;SDS011;58877;51.992;4.504;2023-03-05T15:12:10;1.69;;;1.28;;
71176;SDS011;58877;51.992;4.504;2023-03-05T15:14:37;1.26;;;0.98;;
71176;SDS011;58877;51.992;4.504;2023-03-05T15:17:04;1.08;;;0.83;;
71176;SDS011;58877;51.992;4.504;2023-03-05T15:19:30;0.99;;;0.76;;
71176;SDS011;58877;51.992;4.504;2023-03-05T15:21:56;0.92;;;0.71;;
71176;SDS011;58877;51.992;4.504;2023-03-05T15:24:22;1.09;;;0.84;;
71176;SDS011;58877;51.992;4.504;2023-03-05T15:26:53;1.33;;;1.03;;
71176;SDS011;58877;51.992;4.504;2023-03-05T15:29:18;1.19;;;0.93;;
71176;SDS011;58877;51.992;4.504;2023-03-05T15:31:44;0.86;;;0.68;;
71176;SDS011;58877;51.992;4.504;2023-03-05T15:34:11;1.11;;;0.88;;
71176;SDS011;58877;51.992;4.504;2023-03-05T15:36:36;0.96;;;0.76;;
71176;SDS011;58877;51.992;4.504;2023-03-05T15:39:02;0.86;;;0.68;;
71176;SDS011;58877;51.992;4.504;2023-03-05T15:41:28;1.05;;;0.86;;
71176;SDS011;58877;51.992;4.504;2023-03-05T15:43:54;0.97;;;0.80;;
71176;SDS011;58877;51.992;4.504;2023-03-05T15:46:19;1.02;;;0.83;;
71176;SDS011;58877;51.992;4.504;2023-03-05T15:48:45;0.93;;;0.75;;
71176;SDS011;58877;51.992;4.504;2023-03-05T15:51:14;0.88;;;0.72;;
71176;SDS011;58877;51.992;4.504;2023-03-05T15:53:41;1.04;;;0.84;;
71176;SDS011;58877;51.992;4.504;2023-03-05T15:56:12;0.93;;;0.76;;
71176;SDS011;58877;51.992;4.504;2023-03-05T15:58:39;1.11;;;0.90;;
71176;SDS011;58877;51.992;4.504;2023-03-05T16:01:07;1.18;;;0.94;;
71176;SDS011;58877;51.992;4.504;2023-03-05T16:03:34;1.14;;;0.91;;
71176;SDS011;58877;51.992;4.504;2023-03-05T16:06:00;1.14;;;0.91;;
71176;SDS011;58877;51.992;4.504;2023-03-05T16:08:29;0.89;;;0.73;;
71176;SDS011;58877;51.992;4.504;2023-03-05T16:10:56;1.00;;;0.84;;
71176;SDS011;58877;51.992;4.504;2023-03-05T16:13:22;0.98;;;0.84;;
71176;SDS011;58877;51.992;4.504;2023-03-05T16:15:52;1.19;;;1.02;;
71176;SDS011;58877;51.992;4.504;2023-03-05T16:18:19;1.10;;;0.96;;
71176;SDS011;58877;51.992;4.504;2023-03-05T16:20:47;1.08;;;0.95;;
71176;SDS011;58877;51.992;4.504;2023-03-05T16:23:15;1.16;;;1.02;;
71176;SDS011;58877;51.992;4.504;2023-03-05T16:25:41;1.15;;;1.00;;
71176;SDS011;58877;51.992;4.504;2023-03-05T16:28:07;1.22;;;1.08;;